createdAt,value
2019-02-07T00:01:51.760Z,11.53
2019-02-07T00:04:20.623Z,10.57
2019-02-07T00:06:49.445Z,12.80
2019-02-07T00:09:18.281Z,13.20
2019-02-07T00:11:47.546Z,13.07
2019-02-07T00:14:16.436Z,11.60
2019-02-07T00:16:45.265Z,9.00
2019-02-07T00:19:14.236Z,13.13
2019-02-07T00:21:43.177Z,12.70
2019-02-07T00:24:12.087Z,10.33
2019-02-07T00:26:41.729Z,10.50
2019-02-07T00:29:10.554Z,11.23
2019-02-07T00:31:39.380Z,9.60
2019-02-07T00:34:09.724Z,12.07
2019-02-07T00:36:38.582Z,8.93
2019-02-07T00:39:08.728Z,8.27
2019-02-07T00:41:39.504Z,10.03
2019-02-07T00:44:08.356Z,7.17
2019-02-07T00:46:37.264Z,9.33
2019-02-07T00:49:06.198Z,9.33
2019-02-07T00:51:35.026Z,9.30
2019-02-07T00:54:04.862Z,7.07
2019-02-07T00:56:34.024Z,6.83
2019-02-07T00:59:02.935Z,7.23
2019-02-07T01:01:31.847Z,6.97
2019-02-07T01:04:00.745Z,6.57
2019-02-07T01:06:31.890Z,5.43
2019-02-07T01:09:00.723Z,5.63
2019-02-07T01:11:29.732Z,5.47
2019-02-07T01:13:58.582Z,5.30
2019-02-07T01:16:27.483Z,6.07
2019-02-07T01:18:56.479Z,5.57
2019-02-07T01:21:25.300Z,7.17
2019-02-07T01:23:54.132Z,6.83
2019-02-07T01:26:23.526Z,6.17
2019-02-07T01:28:52.418Z,7.80
2019-02-07T01:31:23.536Z,6.03
2019-02-07T01:33:52.408Z,6.93
2019-02-07T01:36:21.259Z,6.13
2019-02-07T01:38:50.158Z,6.80
2019-02-07T01:41:19.534Z,6.13
2019-02-07T01:43:48.371Z,7.80
2019-02-07T01:46:17.232Z,9.60
2019-02-07T01:48:46.124Z,6.27
2019-02-07T01:51:15.019Z,7.30
2019-02-07T01:53:43.817Z,7.80
2019-02-07T01:56:12.730Z,6.03
2019-02-07T01:58:41.591Z,7.87
2019-02-07T02:01:10.417Z,8.93
2019-02-07T02:03:39.310Z,8.47
2019-02-07T02:06:08.206Z,7.83
2019-02-07T02:08:37.038Z,8.40
2019-02-07T02:11:05.930Z,9.20
2019-02-07T02:13:36.217Z,7.93
2019-02-07T02:16:05.073Z,8.83
2019-02-07T02:18:34.013Z,8.08
2019-02-07T02:21:02.853Z,7.80
2019-02-07T02:23:31.677Z,7.27
2019-02-07T02:26:03.102Z,8.93
2019-02-07T02:28:31.935Z,7.07
2019-02-07T02:31:02.948Z,7.70
2019-02-07T02:33:31.788Z,9.00
2019-02-07T02:36:02.525Z,7.77
2019-02-07T02:38:31.245Z,7.70
2019-02-07T02:41:00.161Z,7.20
2019-02-07T02:43:30.286Z,8.27
2019-02-07T02:45:59.169Z,8.93
2019-02-07T02:48:27.992Z,8.00
2019-02-07T02:50:58.356Z,7.97
2019-02-07T02:53:27.211Z,8.50
2019-02-07T02:55:59.090Z,8.40
2019-02-07T02:58:27.922Z,9.67
2019-02-07T03:01:01.408Z,8.53
2019-02-07T03:03:32.609Z,9.57
2019-02-07T03:06:06.036Z,9.50
2019-02-07T03:08:48.430Z,7.53
2019-02-07T03:11:36.917Z,9.27
2019-02-07T03:14:16.388Z,8.73
2019-02-07T03:16:46.825Z,8.87
2019-02-07T03:19:26.390Z,9.27
2019-02-07T03:22:02.663Z,9.43
2019-02-07T03:24:36.157Z,8.90
2019-02-07T03:27:12.421Z,11.73
2019-02-07T03:29:45.918Z,14.67
2019-02-07T03:32:19.425Z,7.87
2019-02-07T03:35:04.799Z,9.33
2019-02-07T03:37:50.222Z,10.60
2019-02-07T03:40:32.960Z,10.73
2019-02-07T03:43:03.412Z,11.93
2019-02-07T03:45:36.682Z,11.80
2019-02-07T03:48:25.512Z,13.00
2019-02-07T03:51:01.987Z,10.53
2019-02-07T03:53:38.171Z,13.32
2019-02-07T03:56:10.403Z,11.87
2019-02-07T03:58:46.776Z,11.80
2019-02-07T04:01:20.074Z,12.57
2019-02-07T04:03:50.661Z,12.97
2019-02-07T04:06:36.316Z,15.30
2019-02-07T04:09:20.215Z,14.47
2019-02-07T04:11:53.641Z,14.13
2019-02-07T04:14:24.114Z,13.23
2019-02-07T04:17:03.929Z,11.97
2019-02-07T04:19:35.694Z,12.90
2019-02-07T04:22:07.171Z,14.97
2019-02-07T04:24:53.876Z,15.20
2019-02-07T04:27:39.664Z,16.87
2019-02-07T04:30:11.721Z,17.13
2019-02-07T04:32:42.141Z,18.00
2019-02-07T04:35:21.375Z,19.63
2019-02-07T04:37:51.776Z,17.23
2019-02-07T04:40:34.112Z,16.10
2019-02-07T04:43:13.368Z,17.47
2019-02-07T04:45:58.656Z,16.20
2019-02-07T04:48:41.178Z,16.20
2019-02-07T04:51:29.714Z,15.77
2019-02-07T04:54:15.308Z,15.83
2019-02-07T04:56:48.280Z,17.63
2019-02-07T04:59:18.705Z,17.47
2019-02-07T05:01:51.842Z,24.90
2019-02-07T05:04:38.734Z,20.37
2019-02-07T05:07:09.954Z,20.23
2019-02-07T05:09:52.747Z,19.10
2019-02-07T05:12:29.256Z,21.67
2019-02-07T05:15:08.776Z,25.60
2019-02-07T05:17:39.263Z,21.33
2019-02-07T05:20:11.488Z,24.00
2019-02-07T05:22:58.390Z,23.73
2019-02-07T05:25:37.792Z,23.87
2019-02-07T05:28:10.960Z,23.07
2019-02-07T05:30:41.401Z,24.90
2019-02-07T05:33:20.649Z,29.53
2019-02-07T05:36:05.453Z,21.83
2019-02-07T05:38:51.208Z,23.77
2019-02-07T05:41:27.753Z,23.97
2019-02-07T05:44:10.276Z,22.53
2019-02-07T05:46:59.164Z,24.57
2019-02-07T05:49:41.959Z,24.23
2019-02-07T05:52:25.822Z,25.83
2019-02-07T05:55:02.195Z,24.03
2019-02-07T05:57:35.324Z,26.63
2019-02-07T06:00:15.651Z,25.03
2019-02-07T06:02:52.031Z,21.93
2019-02-07T06:05:31.621Z,31.63
2019-02-07T06:08:08.133Z,27.17
2019-02-07T06:10:50.527Z,25.83
2019-02-07T06:13:21.010Z,23.93
2019-02-07T06:16:08.656Z,22.60
2019-02-07T06:18:43.698Z,22.47
2019-02-07T06:21:30.310Z,21.50
2019-02-07T06:24:00.759Z,22.47
2019-02-07T06:26:37.349Z,23.00
2019-02-07T06:29:07.516Z,21.83
2019-02-07T06:31:54.531Z,23.57
2019-02-07T06:34:44.676Z,23.17
2019-02-07T06:37:15.100Z,25.43
2019-02-07T06:39:51.415Z,24.93
2019-02-07T06:42:34.036Z,27.63
2019-02-07T06:45:06.264Z,26.70
2019-02-07T06:47:57.210Z,28.20
2019-02-07T06:50:34.914Z,25.50
2019-02-07T06:53:24.693Z,27.33
2019-02-07T06:55:58.000Z,28.55
2019-02-07T06:58:44.745Z,27.80
2019-02-07T07:01:18.052Z,25.93
2019-02-07T07:04:06.621Z,26.77
2019-02-07T07:06:57.542Z,27.57
2019-02-07T07:09:33.180Z,24.87
2019-02-07T07:12:19.631Z,24.63
2019-02-07T07:15:08.101Z,21.63
2019-02-07T07:17:41.458Z,19.20
2019-02-07T07:20:21.353Z,20.40
2019-02-07T07:23:08.032Z,21.97
2019-02-07T07:25:44.319Z,22.33
2019-02-07T07:28:20.316Z,22.47
2019-02-07T07:31:02.785Z,24.90
2019-02-07T07:33:33.299Z,24.67
2019-02-07T07:36:07.086Z,26.53
2019-02-07T07:38:43.518Z,26.97
2019-02-07T07:41:13.948Z,20.07
2019-02-07T07:43:45.784Z,19.03
2019-02-07T07:46:26.788Z,21.97
2019-02-07T07:49:01.003Z,21.17
2019-02-07T07:51:49.446Z,26.87
2019-02-07T07:54:37.998Z,23.80
2019-02-07T07:57:08.530Z,23.37
2019-02-07T07:59:44.769Z,23.03
2019-02-07T08:02:17.734Z,24.67
2019-02-07T08:04:57.355Z,22.50
2019-02-07T08:07:27.827Z,21.57
2019-02-07T08:09:58.229Z,23.83
2019-02-07T08:12:45.057Z,24.67
2019-02-07T08:15:32.837Z,23.97
2019-02-07T08:18:09.327Z,28.50
2019-02-07T08:20:54.693Z,24.93
2019-02-07T08:23:25.145Z,25.87
2019-02-07T08:26:13.515Z,24.83
2019-02-07T08:29:01.984Z,28.23
2019-02-07T08:31:38.406Z,30.37
2019-02-07T08:34:14.680Z,24.07
2019-02-07T08:37:03.364Z,25.30
2019-02-07T08:39:39.756Z,29.02
2019-02-07T08:42:13.378Z,27.67
2019-02-07T08:44:55.085Z,25.97
2019-02-07T08:47:30.902Z,25.30
2019-02-07T08:50:04.188Z,23.83
2019-02-07T08:52:34.682Z,27.10
2019-02-07T08:55:22.050Z,25.03
2019-02-07T08:57:55.691Z,19.30
2019-02-07T09:00:26.109Z,22.40
2019-02-07T09:03:11.814Z,22.17
2019-02-07T09:05:47.853Z,21.40
2019-02-07T09:08:24.048Z,25.73
2019-02-07T09:10:54.493Z,25.13
2019-02-07T09:13:34.112Z,23.43
2019-02-07T09:16:04.574Z,21.17
2019-02-07T09:18:41.145Z,19.37
2019-02-07T09:21:20.821Z,21.77
2019-02-07T09:24:06.632Z,21.27
2019-02-07T09:26:37.119Z,20.27
2019-02-07T09:29:19.625Z,23.05
2019-02-07T09:31:52.809Z,24.23
2019-02-07T09:34:41.098Z,23.10
2019-02-07T09:37:14.549Z,22.20
2019-02-07T09:39:44.957Z,22.90
2019-02-07T09:42:18.710Z,26.27
2019-02-07T09:44:54.821Z,24.60
2019-02-07T09:47:41.665Z,23.17
2019-02-07T09:50:28.319Z,22.43
2019-02-07T09:53:23.751Z,24.90
2019-02-07T09:56:01.453Z,23.47
2019-02-07T09:58:31.979Z,26.67
2019-02-07T10:01:02.388Z,24.07
2019-02-07T10:03:32.814Z,28.13
2019-02-07T10:06:06.130Z,25.60
2019-02-07T10:08:36.567Z,24.13
2019-02-07T10:11:07.070Z,24.57
2019-02-07T10:13:40.569Z,27.83
2019-02-07T10:16:23.306Z,31.07
2019-02-07T10:19:02.375Z,30.13
2019-02-07T10:21:38.244Z,26.17
2019-02-07T10:24:08.704Z,30.10
2019-02-07T10:26:39.125Z,28.60
2019-02-07T10:29:12.353Z,27.67
2019-02-07T10:31:51.919Z,30.83
2019-02-07T10:34:22.444Z,33.20
2019-02-07T10:36:52.878Z,28.77
2019-02-07T10:39:32.157Z,28.77
2019-02-07T10:42:02.581Z,30.40
2019-02-07T10:44:48.105Z,27.53
2019-02-07T10:47:24.262Z,27.77
2019-02-07T10:50:00.712Z,30.50
2019-02-07T10:52:47.318Z,28.77
2019-02-07T10:55:19.246Z,31.30
2019-02-07T10:58:01.962Z,30.50
2019-02-07T11:00:38.244Z,33.73
2019-02-07T11:03:11.332Z,32.00
2019-02-07T11:06:00.014Z,29.23
2019-02-07T11:08:30.441Z,27.33
2019-02-07T11:11:02.742Z,25.13
2019-02-07T11:13:35.673Z,23.43
2019-02-07T11:16:23.544Z,25.93
2019-02-07T11:19:20.638Z,25.33
2019-02-07T11:22:00.617Z,24.47
2019-02-07T11:24:31.031Z,19.63
2019-02-07T11:27:17.657Z,23.27
2019-02-07T11:30:04.639Z,22.10
2019-02-07T11:32:35.126Z,21.27
2019-02-07T11:35:22.633Z,23.43
2019-02-07T11:37:53.047Z,21.47
2019-02-07T11:40:41.318Z,26.10
2019-02-07T11:43:14.766Z,21.87
2019-02-07T11:46:02.929Z,24.60
2019-02-07T11:48:36.342Z,23.80
2019-02-07T11:51:09.721Z,20.93
2019-02-07T11:53:46.077Z,22.13
2019-02-07T11:56:19.563Z,23.37
2019-02-07T11:59:08.357Z,22.37
2019-02-07T12:01:44.916Z,23.90
2019-02-07T12:04:32.118Z,22.87
2019-02-07T12:07:05.402Z,24.07
2019-02-07T12:09:42.994Z,22.03
2019-02-07T12:12:13.580Z,21.93
2019-02-07T12:14:55.792Z,21.20
2019-02-07T12:17:41.164Z,22.80
2019-02-07T12:20:29.386Z,22.27
2019-02-07T12:23:12.066Z,18.77
2019-02-07T12:26:01.609Z,20.90
2019-02-07T12:28:50.253Z,20.90
2019-02-07T12:31:29.385Z,20.23
2019-02-07T12:34:02.290Z,20.83
2019-02-07T12:36:38.517Z,19.77
2019-02-07T12:39:25.801Z,20.63
2019-02-07T12:42:02.516Z,25.87
2019-02-07T12:44:41.950Z,21.93
2019-02-07T12:47:28.546Z,21.63
2019-02-07T12:50:02.224Z,19.53
2019-02-07T12:52:32.658Z,20.33
2019-02-07T12:55:06.259Z,22.13
2019-02-07T12:57:53.869Z,19.80
2019-02-07T13:00:27.465Z,21.53
2019-02-07T13:03:14.182Z,21.73
2019-02-07T13:05:45.076Z,23.43
2019-02-07T13:08:18.209Z,23.27
2019-02-07T13:11:03.743Z,25.02
2019-02-07T13:13:50.780Z,25.00
2019-02-07T13:16:30.177Z,22.73
2019-02-07T13:19:01.370Z,24.40
2019-02-07T13:21:31.812Z,22.27
2019-02-07T13:24:05.041Z,22.83
2019-02-07T13:26:35.429Z,20.63
2019-02-07T13:29:21.351Z,17.63
2019-02-07T13:31:51.899Z,17.03
2019-02-07T13:34:25.881Z,21.27
2019-02-07T13:36:59.565Z,19.20
2019-02-07T13:39:42.119Z,18.67
2019-02-07T13:42:34.293Z,17.20
2019-02-07T13:45:06.381Z,17.57
2019-02-07T13:47:53.378Z,19.27
2019-02-07T13:50:42.943Z,16.83
2019-02-07T13:53:16.080Z,17.90
2019-02-07T13:55:52.612Z,19.10
2019-02-07T13:58:35.079Z,18.90
2019-02-07T14:01:22.455Z,20.92
2019-02-07T14:03:52.942Z,22.60
2019-02-07T14:06:39.330Z,17.83
2019-02-07T14:09:22.389Z,17.90
2019-02-07T14:12:09.141Z,15.83
2019-02-07T14:14:42.271Z,18.03
2019-02-07T14:17:19.789Z,15.90
2019-02-07T14:20:03.866Z,18.10
2019-02-07T14:22:47.070Z,19.33
2019-02-07T14:25:33.779Z,18.87
2019-02-07T14:28:04.213Z,22.63
2019-02-07T14:30:40.340Z,23.20
2019-02-07T14:33:30.223Z,23.53
2019-02-07T14:36:09.747Z,22.77
2019-02-07T14:38:56.676Z,21.87
2019-02-07T14:41:30.007Z,19.07
2019-02-07T14:44:01.930Z,21.93
2019-02-07T14:46:52.618Z,21.80
2019-02-07T14:49:31.739Z,21.47
2019-02-07T14:51:57.056Z,25.53
2019-02-07T14:54:30.537Z,20.90
2019-02-07T14:57:00.659Z,16.57
2019-02-07T14:59:43.708Z,16.13
2019-02-07T15:02:11.993Z,17.77
2019-02-07T15:04:45.995Z,17.53
2019-02-07T15:07:21.747Z,17.73
2019-02-07T15:09:55.141Z,15.80
2019-02-07T15:12:23.982Z,17.40
2019-02-07T15:14:57.918Z,14.20
2019-02-07T15:17:26.734Z,14.67
2019-02-07T15:19:55.687Z,16.87
2019-02-07T15:22:24.618Z,16.87
2019-02-07T15:24:53.428Z,18.17
2019-02-07T15:27:22.411Z,18.43
2019-02-07T15:29:53.170Z,15.30
2019-02-07T15:32:22.029Z,16.40
2019-02-07T15:34:53.834Z,14.47
2019-02-07T15:37:23.652Z,14.13
2019-02-07T15:39:52.684Z,16.00
2019-02-07T15:42:22.892Z,15.93
2019-02-07T15:44:53.552Z,15.80
2019-02-07T15:47:22.370Z,14.03
2019-02-07T15:49:53.603Z,14.03
2019-02-07T15:52:23.055Z,15.97
2019-02-07T15:54:51.857Z,16.23
2019-02-07T15:57:20.721Z,17.40
2019-02-07T15:59:50.823Z,12.80
2019-02-07T16:02:21.274Z,13.37
2019-02-07T16:04:51.596Z,14.53
2019-02-07T16:07:20.725Z,14.63
2019-02-07T16:09:49.613Z,16.60
2019-02-07T16:12:18.445Z,15.13
2019-02-07T16:14:47.406Z,15.40
2019-02-07T16:17:16.276Z,18.00
2019-02-07T16:19:45.098Z,19.00
2019-02-07T16:22:13.979Z,17.53
2019-02-07T16:24:42.848Z,18.27
2019-02-07T16:27:11.816Z,15.50
2019-02-07T16:29:40.967Z,17.27
2019-02-07T16:32:09.801Z,18.27
2019-02-07T16:34:38.779Z,15.53
2019-02-07T16:37:07.632Z,14.30
2019-02-07T16:39:36.475Z,17.47
2019-02-07T16:42:06.933Z,17.33
2019-02-07T16:44:36.424Z,13.07
2019-02-07T16:47:05.370Z,13.70
2019-02-07T16:49:34.343Z,15.37
2019-02-07T16:52:06.532Z,19.10
2019-02-07T16:54:35.350Z,14.83
2019-02-07T16:57:04.226Z,14.97
2019-02-07T16:59:33.538Z,17.93
2019-02-07T17:02:02.416Z,16.80
2019-02-07T17:04:31.360Z,14.47
2019-02-07T17:07:03.426Z,14.33
2019-02-07T17:09:33.253Z,13.27
2019-02-07T17:12:02.349Z,13.53
2019-02-07T17:14:31.482Z,13.17
2019-02-07T17:17:00.367Z,12.17
2019-02-07T17:19:29.366Z,14.47
2019-02-07T17:21:58.261Z,17.37
2019-02-07T17:24:27.215Z,17.70
2019-02-07T17:26:58.846Z,28.13
2019-02-07T17:29:29.459Z,21.20
2019-02-07T17:31:58.290Z,29.50
2019-02-07T17:34:27.143Z,28.63
2019-02-07T17:36:56.081Z,23.07
2019-02-07T17:39:24.961Z,17.53
2019-02-07T17:41:53.815Z,17.30
2019-02-07T17:44:22.802Z,22.10
2019-02-07T17:46:51.691Z,18.73
2019-02-07T17:49:20.701Z,16.50
2019-02-07T17:51:54.804Z,15.43
2019-02-07T17:54:26.673Z,26.87
2019-02-07T17:56:55.528Z,20.53
2019-02-07T17:59:24.420Z,23.43
2019-02-07T18:01:53.559Z,20.72
2019-02-07T18:04:24.866Z,19.97
2019-02-07T18:06:53.880Z,23.90
2019-02-07T18:09:28.614Z,21.63
2019-02-07T18:11:58.524Z,17.23
2019-02-07T18:14:27.414Z,21.30
2019-02-07T18:16:57.506Z,21.73
2019-02-07T18:19:29.704Z,22.73
2019-02-07T18:22:01.637Z,16.97
2019-02-07T18:24:35.092Z,18.93
2019-02-07T18:27:09.489Z,19.33
2019-02-07T18:29:38.581Z,17.87
2019-02-07T18:32:07.523Z,19.03
2019-02-07T18:34:37.834Z,20.73
2019-02-07T18:37:09.549Z,22.53
2019-02-07T18:39:38.628Z,17.47
2019-02-07T18:42:07.676Z,18.37
2019-02-07T18:44:36.579Z,19.27
2019-02-07T18:47:08.103Z,24.93
2019-02-07T18:49:36.977Z,18.20
2019-02-07T18:52:07.067Z,18.30
2019-02-07T18:54:36.403Z,18.57
2019-02-07T18:57:05.879Z,15.40
2019-02-07T18:59:38.400Z,15.60
2019-02-07T19:02:07.400Z,23.20
2019-02-07T19:04:36.320Z,17.10
2019-02-07T19:07:05.650Z,17.33
2019-02-07T19:09:35.272Z,16.77
2019-02-07T19:12:04.349Z,17.67
2019-02-07T19:14:34.599Z,21.48
2019-02-07T19:17:03.457Z,18.70
2019-02-07T19:19:36.995Z,17.13
2019-02-07T19:22:05.857Z,16.80
2019-02-07T19:24:34.892Z,18.03
2019-02-07T19:27:03.748Z,20.33
2019-02-07T19:29:32.686Z,20.00
2019-02-07T19:32:01.644Z,18.77
2019-02-07T19:34:30.966Z,21.90
2019-02-07T19:37:00.200Z,20.03
2019-02-07T19:39:29.508Z,18.57
2019-02-07T19:41:58.902Z,20.03
2019-02-07T19:44:27.828Z,19.10
2019-02-07T19:46:56.756Z,24.23
2019-02-07T19:49:25.641Z,19.10
2019-02-07T19:51:54.566Z,19.90
2019-02-07T19:54:33.722Z,20.40
2019-02-07T19:57:05.610Z,20.30
2019-02-07T19:59:34.460Z,22.73
2019-02-07T20:02:06.955Z,21.63
2019-02-07T20:04:35.857Z,23.43
2019-02-07T20:07:04.989Z,22.82
2019-02-07T20:09:33.877Z,21.27
2019-02-07T20:12:02.807Z,20.47
2019-02-07T20:14:31.687Z,21.30
2019-02-07T20:17:02.220Z,20.80
2019-02-07T20:19:31.099Z,24.80
2019-02-07T20:22:01.310Z,23.77
2019-02-07T20:24:30.952Z,21.07
2019-02-07T20:26:59.876Z,26.50
2019-02-07T20:29:30.799Z,26.57
2019-02-07T20:31:59.633Z,23.20
2019-02-07T20:34:28.550Z,29.90
2019-02-07T20:36:57.492Z,26.77
2019-02-07T20:39:27.151Z,23.03
2019-02-07T20:41:57.901Z,23.27
2019-02-07T20:44:26.714Z,23.43
2019-02-07T20:46:55.560Z,19.77
2019-02-07T20:49:24.430Z,20.33
2019-02-07T20:51:53.349Z,21.60
2019-02-07T20:54:22.156Z,20.97
2019-02-07T20:56:56.981Z,19.70
2019-02-07T20:59:25.816Z,21.53
2019-02-07T21:01:54.658Z,20.82
2019-02-07T21:04:25.057Z,22.87
2019-02-07T21:07:10.680Z,19.77
2019-02-07T21:09:39.992Z,18.10
2019-02-07T21:12:10.326Z,20.17
2019-02-07T21:14:39.144Z,20.87
2019-02-07T21:17:08.019Z,21.67
2019-02-07T21:19:38.323Z,19.47
2019-02-07T21:22:07.149Z,22.37
2019-02-07T21:24:43.980Z,22.00
2019-02-07T21:27:18.721Z,20.67
2019-02-07T21:29:47.569Z,21.40
2019-02-07T21:32:16.445Z,24.80
2019-02-07T21:34:46.827Z,22.90
2019-02-07T21:37:15.728Z,21.33
2019-02-07T21:39:44.942Z,24.70
2019-02-07T21:42:13.824Z,29.33
2019-02-07T21:44:42.734Z,26.87
2019-02-07T21:47:11.647Z,24.77
2019-02-07T21:49:40.499Z,26.17
2019-02-07T21:52:09.376Z,22.33
2019-02-07T21:54:38.220Z,28.77
2019-02-07T21:57:07.576Z,27.53
2019-02-07T21:59:36.820Z,24.97
2019-02-07T22:02:07.140Z,23.93
2019-02-07T22:04:37.594Z,25.87
2019-02-07T22:07:06.447Z,24.70
2019-02-07T22:09:35.246Z,25.87
2019-02-07T22:12:04.651Z,31.30
2019-02-07T22:14:34.349Z,28.90
2019-02-07T22:17:03.219Z,27.80
2019-02-07T22:19:32.167Z,24.03
2019-02-07T22:22:01.034Z,24.87
2019-02-07T22:24:29.790Z,23.27
2019-02-07T22:26:59.174Z,27.43
2019-02-07T22:29:29.588Z,22.83
2019-02-07T22:31:58.430Z,23.17
2019-02-07T22:34:27.345Z,22.33
2019-02-07T22:36:56.168Z,29.03
2019-02-07T22:39:25.054Z,23.63
2019-02-07T22:41:53.949Z,22.17
2019-02-07T22:44:22.789Z,21.53
2019-02-07T22:46:51.633Z,22.70
2019-02-07T22:49:20.615Z,23.47
2019-02-07T22:51:49.487Z,28.27
2019-02-07T22:54:20.570Z,24.90
2019-02-07T22:56:49.495Z,20.87
2019-02-07T22:59:18.427Z,24.63
2019-02-07T23:01:49.580Z,24.87
2019-02-07T23:04:20.474Z,19.43
2019-02-07T23:06:49.176Z,20.73
2019-02-07T23:09:18.233Z,21.33
2019-02-07T23:11:48.803Z,18.17
2019-02-07T23:14:17.679Z,16.83
2019-02-07T23:16:46.536Z,15.90
2019-02-07T23:19:15.431Z,18.70
2019-02-07T23:21:44.247Z,16.37
2019-02-07T23:24:13.208Z,16.50
2019-02-07T23:26:42.111Z,16.33
2019-02-07T23:29:11.324Z,16.10
2019-02-07T23:31:40.164Z,27.50
2019-02-07T23:34:09.180Z,15.33
2019-02-07T23:36:38.012Z,13.27
2019-02-07T23:39:08.172Z,15.13
2019-02-07T23:41:37.606Z,12.83
2019-02-07T23:44:07.644Z,18.10
2019-02-07T23:46:36.470Z,13.00
2019-02-07T23:49:06.868Z,11.97
2019-02-07T23:51:39.292Z,14.50
2019-02-07T23:54:08.187Z,13.03
2019-02-07T23:56:37.091Z,13.83
2019-02-07T23:59:06.325Z,16.93
